Terminal Aerodrome Forecast
Issued by NWS Wilmington, NC

Home | Current Version | Previous Version | Text Only | Print | Product List | Glossary On
Versions: 1 2 3 4 5 6 7 8 9 10 11 12 13 14 15 16 17 18 19 20 21 22 23 24 25 26 27 28 29 30
000
FTUS42 KILM 022326
TAFFLO
TAF
KFLO 022326Z 0300/0324 19008KT P6SM -RA SCT030 BKN050 OVC250
      TEMPO 0300/0304 P6SM TS SCT025 BKN050CB
     FM031200 23010KT P6SM VCTS SCT020 SCT035CB BKN250
      TEMPO 0312/0316 VRB15G22KT P6SM -TSRA BKN025 BKN050CB
     FM032000 25010KT P6SM VCSH SCT030 BKN050=

USA.gov is the U.S. government's official web portal to all federal, state and local government web resources and services.